Time;durP1;ratioP1;P1;durP2;ratioP2;P2;SDS_P1;SDS_P2;PMS_P1;PMS_P2;Temp;Humidity;BMP_temperature;BMP_pressure;BME280_temperature;BME280_humidity;BME280_pressure;Samples;Min_cycle;Max_cycle;Signal;HPM_P1;HPM_P2
2022/01/05 00:00:22;;;;;;;9.83;3.27;;;12.70;99.90;;;;;;5022509;28;20200;-69
2022/01/05 00:02:48;;;;;;;11.00;3.10;;;12.60;99.90;;;;;;5026414;28;20230;-70
2022/01/05 00:05:15;;;;;;;15.70;3.47;;;12.70;99.90;;;;;;5022848;28;20203;-70
2022/01/05 00:07:41;;;;;;;8.03;2.93;;;12.70;99.90;;;;;;5041042;28;20196;-70
2022/01/05 00:10:08;;;;;;;10.10;3.00;;;12.70;99.90;;;;;;5046911;28;20219;-70
2022/01/05 00:12:34;;;;;;;12.77;3.40;;;12.70;99.90;;;;;;5028133;28;20758;-69
2022/01/05 00:15:01;;;;;;;7.80;2.73;;;12.70;99.90;;;;;;5025422;28;20192;-69
2022/01/05 00:17:28;;;;;;;11.83;3.07;;;12.70;99.90;;;;;;5034595;28;20206;-69
2022/01/05 00:19:54;;;;;;;9.13;2.70;;;12.70;99.90;;;;;;5020392;28;20793;-69
2022/01/05 00:22:21;;;;;;;17.90;3.33;;;12.70;99.90;;;;;;5038860;28;20655;-69
2022/01/05 00:24:47;;;;;;;12.33;3.20;;;12.70;99.90;;;;;;5029272;28;20190;-69
2022/01/05 00:27:14;;;;;;;19.37;3.90;;;12.80;99.90;;;;;;5048603;28;20744;-69
2022/01/05 00:29:40;;;;;;;14.00;3.63;;;12.80;99.90;;;;;;5026102;28;20187;-69
2022/01/05 00:32:08;;;;;;;11.20;3.03;;;12.80;99.90;;;;;;5044491;28;20211;-69
2022/01/05 00:34:36;;;;;;;11.80;2.80;;;12.80;99.90;;;;;;5036769;28;20306;-69
2022/01/05 00:37:04;;;;;;;14.33;2.70;;;12.80;99.90;;;;;;5047950;28;20418;-69
2022/01/05 00:39:31;;;;;;;9.70;3.00;;;12.70;99.90;;;;;;5015189;28;20264;-69
2022/01/05 00:41:57;;;;;;;10.93;3.17;;;12.70;99.90;;;;;;5046895;28;20201;-69
2022/01/05 00:44:24;;;;;;;11.80;2.80;;;12.70;99.90;;;;;;5014803;28;20343;-69
2022/01/05 00:46:51;;;;;;;13.60;2.83;;;12.70;99.90;;;;;;5030273;28;20190;-69
2022/01/05 00:49:17;;;;;;;10.37;3.10;;;12.70;99.90;;;;;;5015493;28;20202;-69
2022/01/05 00:51:44;;;;;;;15.60;2.90;;;12.70;99.90;;;;;;5040561;28;20214;-69
2022/01/05 00:54:12;;;;;;;11.83;2.80;;;12.60;99.90;;;;;;5036256;28;20206;-69
2022/01/05 00:56:38;;;;;;;11.97;2.87;;;12.70;99.90;;;;;;5060886;28;21029;-70
2022/01/05 00:59:05;;;;;;;10.20;3.23;;;12.70;99.90;;;;;;5020800;28;20191;-69
2022/01/05 01:01:31;;;;;;;14.07;3.03;;;12.70;99.90;;;;;;5029989;28;20723;-69
2022/01/05 01:03:58;;;;;;;10.80;2.83;;;12.60;99.90;;;;;;5056757;28;20217;-69
2022/01/05 01:06:24;;;;;;;8.67;2.33;;;12.60;99.90;;;;;;5031792;28;20252;-69
2022/01/05 01:08:50;;;;;;;15.50;3.37;;;12.60;99.90;;;;;;5039056;28;20209;-69
2022/01/05 01:11:17;;;;;;;10.63;2.90;;;12.60;99.90;;;;;;5056668;28;20671;-69
2022/01/05 01:13:44;;;;;;;7.67;2.50;;;12.60;99.90;;;;;;5033497;28;20194;-69
2022/01/05 01:16:11;;;;;;;7.80;2.60;;;12.70;99.90;;;;;;5060728;28;20286;-69
2022/01/05 01:18:37;;;;;;;9.73;2.60;;;12.60;99.90;;;;;;5043093;28;20291;-69
2022/01/05 01:21:04;;;;;;;10.87;3.10;;;12.60;99.90;;;;;;5033232;28;20795;-69
2022/01/05 01:23:30;;;;;;;10.90;2.53;;;12.60;99.90;;;;;;5028273;28;20195;-69
2022/01/05 01:25:56;;;;;;;9.10;2.70;;;12.60;99.90;;;;;;5051317;28;20192;-69
2022/01/05 01:28:24;;;;;;;8.30;2.70;;;12.60;99.90;;;;;;5036078;28;20214;-69
2022/01/05 01:30:51;;;;;;;10.17;3.47;;;12.60;99.90;;;;;;5032729;28;20237;-69
2022/01/05 01:33:18;;;;;;;11.43;2.80;;;12.60;99.90;;;;;;5020177;28;20690;-69
2022/01/05 01:35:45;;;;;;;12.13;2.80;;;12.60;99.90;;;;;;5013799;28;20187;-69
2022/01/05 01:38:11;;;;;;;7.67;2.23;;;12.60;99.90;;;;;;5034522;28;20187;-69
2022/01/05 01:40:38;;;;;;;9.37;3.07;;;12.60;99.90;;;;;;5048299;28;20182;-68
2022/01/05 01:43:04;;;;;;;13.27;3.10;;;12.70;99.90;;;;;;5046145;28;20199;-69
2022/01/05 01:45:31;;;;;;;9.43;2.80;;;12.70;99.90;;;;;;5032715;28;20187;-69
2022/01/05 01:47:57;;;;;;;15.17;2.90;;;12.60;99.90;;;;;;5050899;28;20966;-69
2022/01/05 01:50:24;;;;;;;10.30;2.70;;;12.60;99.90;;;;;;5051136;28;20261;-67
2022/01/05 01:52:52;;;;;;;11.13;3.15;;;12.60;99.90;;;;;;5024315;28;20449;-68
2022/01/05 01:55:20;;;;;;;10.30;2.80;;;12.70;99.90;;;;;;5026173;28;20705;-66
2022/01/05 01:57:47;;;;;;;12.87;2.77;;;12.70;99.90;;;;;;5029357;28;20191;-70
2022/01/05 02:00:14;;;;;;;13.37;2.90;;;12.70;99.90;;;;;;5030167;28;20215;-69
2022/01/05 02:02:44;;;;;;;12.00;2.90;;;12.70;99.90;;;;;;5030021;28;20249;-70
2022/01/05 02:05:12;;;;;;;12.63;2.70;;;12.70;99.90;;;;;;5015588;28;20230;-69
2022/01/05 02:07:39;;;;;;;16.13;2.80;;;12.70;99.90;;;;;;5029812;28;20187;-67
2022/01/05 02:10:08;;;;;;;11.67;2.97;;;12.60;99.90;;;;;;5057137;28;20695;-67
2022/01/05 02:12:35;;;;;;;10.20;2.60;;;12.70;99.90;;;;;;5037939;28;20716;-67
2022/01/05 02:15:02;;;;;;;11.17;3.13;;;12.70;99.90;;;;;;5032903;28;20183;-67
2022/01/05 02:17:52;;;;;;;13.80;2.87;;;12.70;99.90;;;;;;5037809;28;20183;-66
2022/01/05 02:20:25;;;;;;;13.67;3.20;;;12.70;99.90;;;;;;5030814;28;20306;-67
2022/01/05 02:22:53;;;;;;;13.40;3.00;;;12.70;99.90;;;;;;5036919;28;20193;-67
2022/01/05 02:25:20;;;;;;;15.13;3.10;;;12.70;99.90;;;;;;5017408;28;20230;-67
2022/01/05 02:27:49;;;;;;;10.57;2.67;;;12.70;99.90;;;;;;5035545;28;20199;-67
2022/01/05 02:30:22;;;;;;;16.83;2.73;;;12.60;99.90;;;;;;5005177;28;20730;-67
2022/01/05 02:32:49;;;;;;;9.00;2.80;;;12.60;99.90;;;;;;5044520;28;20235;-67
2022/01/05 02:35:16;;;;;;;10.50;3.07;;;12.60;99.90;;;;;;5039903;28;20209;-67
2022/01/05 02:37:50;;;;;;;13.67;3.33;;;12.60;99.90;;;;;;5019905;28;20716;-67
2022/01/05 02:40:21;;;;;;;6.90;2.40;;;12.70;99.90;;;;;;5040330;28;20191;-67
2022/01/05 02:42:48;;;;;;;13.13;2.90;;;12.70;99.90;;;;;;5058190;28;20282;-67
2022/01/05 02:45:16;;;;;;;9.80;2.80;;;12.60;99.90;;;;;;5025992;28;20188;-67
2022/01/05 02:47:42;;;;;;;11.33;2.93;;;12.60;99.90;;;;;;5036392;28;20195;-67
2022/01/05 02:50:12;;;;;;;8.57;2.67;;;12.60;99.90;;;;;;5031470;28;20303;-67
2022/01/05 02:52:39;;;;;;;9.80;3.03;;;12.60;99.90;;;;;;5019015;28;20768;-67
2022/01/05 02:55:07;;;;;;;9.20;2.97;;;12.60;99.90;;;;;;5041248;28;20290;-67
2022/01/05 02:57:34;;;;;;;18.57;2.60;;;12.60;99.90;;;;;;5032096;28;20365;-67
2022/01/05 03:00:01;;;;;;;12.83;3.23;;;12.60;99.90;;;;;;5033557;28;20191;-67
2022/01/05 03:02:27;;;;;;;9.13;3.00;;;12.60;99.90;;;;;;5013217;28;20298;-67
2022/01/05 03:04:53;;;;;;;9.23;2.90;;;12.60;99.90;;;;;;5024298;28;20247;-67
2022/01/05 03:07:20;;;;;;;17.70;3.10;;;12.60;99.90;;;;;;5032702;28;20187;-67
2022/01/05 03:09:46;;;;;;;11.60;2.90;;;12.60;99.90;;;;;;5022824;28;20183;-67
2022/01/05 03:12:13;;;;;;;10.80;2.97;;;12.60;99.90;;;;;;5025270;28;20191;-67
2022/01/05 03:14:40;;;;;;;7.83;2.77;;;12.60;99.90;;;;;;5036730;28;20183;-67
2022/01/05 03:17:06;;;;;;;6.97;2.90;;;12.60;99.90;;;;;;5030157;28;20238;-67
2022/01/05 03:19:32;;;;;;;8.67;2.63;;;12.60;99.90;;;;;;5024154;28;20191;-67
2022/01/05 03:21:59;;;;;;;8.37;2.77;;;12.60;99.90;;;;;;5037739;28;20641;-67
2022/01/05 03:24:25;;;;;;;14.43;3.40;;;12.60;99.90;;;;;;5033620;28;20237;-66
2022/01/05 03:26:51;;;;;;;10.30;3.37;;;12.60;99.90;;;;;;5039870;28;20890;-67
2022/01/05 03:29:17;;;;;;;9.40;3.03;;;12.60;99.90;;;;;;5039036;28;20249;-66
2022/01/05 03:31:43;;;;;;;11.23;3.10;;;12.60;99.90;;;;;;5039850;28;20544;-67
2022/01/05 03:34:17;;;;;;;9.13;2.53;;;12.60;99.90;;;;;;5041912;28;20190;-66
2022/01/05 03:36:43;;;;;;;11.73;2.97;;;12.60;99.90;;;;;;5045522;28;20184;-67
2022/01/05 03:39:09;;;;;;;6.73;2.37;;;12.60;99.90;;;;;;5027618;28;20197;-67
2022/01/05 03:41:36;;;;;;;14.70;3.57;;;12.60;99.90;;;;;;5022641;28;20521;-66
2022/01/05 03:44:03;;;;;;;15.80;3.70;;;12.60;99.90;;;;;;5036493;28;20191;-66
2022/01/05 03:46:30;;;;;;;12.57;3.00;;;12.60;99.90;;;;;;5053881;28;20187;-66
2022/01/05 03:48:57;;;;;;;14.27;3.00;;;12.60;99.90;;;;;;5037346;28;20270;-66
2022/01/05 03:51:23;;;;;;;8.43;2.90;;;12.60;99.90;;;;;;5051115;28;20230;-66
2022/01/05 03:53:49;;;;;;;7.37;2.90;;;12.50;99.90;;;;;;5019053;28;20191;-66
2022/01/05 03:56:15;;;;;;;7.87;2.90;;;12.50;99.90;;;;;;5005901;28;20179;-66
2022/01/05 03:58:42;;;;;;;11.27;3.17;;;12.40;99.90;;;;;;5039681;28;20944;-66
2022/01/05 04:01:09;;;;;;;9.40;2.77;;;12.40;99.90;;;;;;5036170;28;20245;-66
2022/01/05 04:03:35;;;;;;;10.83;2.60;;;12.40;99.90;;;;;;5015431;28;20200;-66
2022/01/05 04:06:02;;;;;;;8.67;2.80;;;12.40;99.90;;;;;;5021101;28;20222;-67
2022/01/05 04:08:28;;;;;;;10.73;3.13;;;12.30;99.90;;;;;;5036292;28;20179;-66
2022/01/05 04:10:54;;;;;;;10.90;2.97;;;12.40;99.90;;;;;;5034922;28;20241;-66
2022/01/05 04:13:21;;;;;;;5.13;2.10;;;12.30;99.90;;;;;;5039695;28;20290;-66
2022/01/05 04:15:47;;;;;;;9.87;2.77;;;12.30;99.90;;;;;;5034637;28;22367;-68
2022/01/05 04:18:13;;;;;;;7.20;2.57;;;12.30;99.90;;;;;;5051591;28;20680;-68
2022/01/05 04:20:39;;;;;;;7.60;2.80;;;12.30;99.90;;;;;;5031355;28;20186;-68
2022/01/05 04:23:06;;;;;;;6.70;2.47;;;12.20;99.90;;;;;;5023508;28;20184;-68
2022/01/05 04:25:36;;;;;;;6.73;2.13;;;12.20;99.90;;;;;;5030928;28;20194;-68
2022/01/05 04:28:04;;;;;;;6.57;2.70;;;12.20;99.90;;;;;;5049403;28;20192;-68
2022/01/05 04:30:30;;;;;;;7.00;2.83;;;12.20;99.90;;;;;;5026286;28;20203;-68
2022/01/05 04:32:57;;;;;;;9.80;2.80;;;12.20;99.90;;;;;;5039188;28;20183;-68
2022/01/05 04:35:23;;;;;;;7.60;2.47;;;12.20;99.90;;;;;;5015290;28;20244;-68
2022/01/05 04:37:49;;;;;;;11.50;3.20;;;12.30;99.90;;;;;;5027942;28;20187;-68
2022/01/05 04:40:15;;;;;;;8.17;2.80;;;12.30;99.90;;;;;;5052572;28;20663;-68
2022/01/05 04:42:42;;;;;;;7.80;2.70;;;12.30;99.90;;;;;;5023188;28;20191;-67
2022/01/05 04:45:08;;;;;;;16.53;2.77;;;12.30;99.90;;;;;;5043408;28;20196;-67
2022/01/05 04:47:35;;;;;;;7.90;2.57;;;12.30;99.90;;;;;;5026356;28;20590;-67
2022/01/05 04:50:01;;;;;;;8.63;2.70;;;12.20;99.90;;;;;;5061954;28;20313;-67
2022/01/05 04:52:27;;;;;;;8.10;2.77;;;12.30;99.90;;;;;;5038867;28;20191;-67
2022/01/05 04:54:54;;;;;;;7.57;2.43;;;12.30;99.90;;;;;;5012547;28;20613;-67
2022/01/05 04:57:20;;;;;;;13.07;2.83;;;12.30;99.90;;;;;;5043890;28;20188;-67
2022/01/05 04:59:46;;;;;;;11.30;2.57;;;12.30;99.90;;;;;;5042148;28;20269;-68
2022/01/05 05:02:13;;;;;;;9.30;2.40;;;12.30;99.90;;;;;;5032638;28;20202;-67
2022/01/05 05:04:40;;;;;;;9.23;2.60;;;12.40;99.90;;;;;;5027605;28;20195;-67
2022/01/05 05:07:06;;;;;;;12.23;3.13;;;12.40;99.90;;;;;;5032075;28;20237;-67
2022/01/05 05:09:33;;;;;;;12.67;3.07;;;12.40;99.90;;;;;;5029027;28;20190;-68
2022/01/05 05:11:59;;;;;;;7.57;2.70;;;12.40;99.90;;;;;;5022377;28;20211;-68
2022/01/05 05:14:25;;;;;;;11.57;2.90;;;12.40;99.90;;;;;;5030833;28;20551;-67
2022/01/05 05:16:52;;;;;;;9.43;2.60;;;12.40;99.90;;;;;;5035823;28;20191;-67
2022/01/05 05:19:18;;;;;;;6.53;2.53;;;12.50;99.90;;;;;;5059682;28;20202;-67
2022/01/05 05:21:45;;;;;;;9.43;3.07;;;12.50;99.90;;;;;;5036382;28;20203;-68
2022/01/05 05:24:13;;;;;;;12.77;2.93;;;12.50;99.90;;;;;;5052396;28;20191;-68
2022/01/05 05:26:40;;;;;;;10.20;2.60;;;12.50;99.90;;;;;;5006884;28;20803;-67
2022/01/05 05:29:06;;;;;;;11.77;3.40;;;12.50;99.90;;;;;;5037679;28;20215;-67
2022/01/05 05:31:32;;;;;;;7.97;2.50;;;12.50;99.90;;;;;;5055356;28;20207;-67
2022/01/05 05:33:59;;;;;;;12.97;2.80;;;12.50;99.90;;;;;;5016089;28;20279;-67
2022/01/05 05:36:25;;;;;;;12.90;3.10;;;12.50;99.90;;;;;;5029324;28;20271;-67
2022/01/05 05:38:51;;;;;;;13.70;2.73;;;12.50;99.90;;;;;;5047808;28;20867;-67
2022/01/05 05:41:17;;;;;;;12.27;2.73;;;12.50;99.90;;;;;;5020766;28;20195;-67
2022/01/05 05:43:45;;;;;;;9.27;2.40;;;12.60;99.90;;;;;;5020915;28;20195;-67
2022/01/05 05:46:11;;;;;;;8.07;2.87;;;12.60;99.90;;;;;;5041416;28;20198;-68
2022/01/05 05:48:37;;;;;;;9.20;2.50;;;12.60;99.90;;;;;;5057822;28;20274;-67
2022/01/05 05:51:03;;;;;;;8.77;2.67;;;12.60;99.90;;;;;;5037042;28;20298;-67
2022/01/05 05:53:30;;;;;;;9.50;2.37;;;12.70;99.90;;;;;;5043609;28;20190;-67
2022/01/05 05:55:56;;;;;;;13.63;2.57;;;12.70;99.90;;;;;;5023685;28;20841;-67
2022/01/05 05:58:22;;;;;;;8.93;2.57;;;12.70;99.90;;;;;;5046886;28;20314;-67
2022/01/05 06:00:49;;;;;;;8.60;2.50;;;12.70;99.90;;;;;;5049721;28;20299;-67
2022/01/05 06:03:15;;;;;;;10.07;2.67;;;12.70;99.90;;;;;;5040544;28;20208;-67
2022/01/05 06:05:42;;;;;;;6.80;2.57;;;12.80;99.90;;;;;;5042311;28;20199;-69
2022/01/05 06:08:08;;;;;;;9.50;2.83;;;12.80;99.90;;;;;;5005697;28;20191;-69
2022/01/05 06:10:35;;;;;;;9.57;3.10;;;12.80;99.90;;;;;;5053158;28;20256;-67
2022/01/05 06:13:01;;;;;;;12.10;3.03;;;12.90;99.90;;;;;;5050988;28;20207;-67
2022/01/05 06:15:28;;;;;;;11.30;2.90;;;12.90;99.90;;;;;;5030423;28;20187;-67
2022/01/05 06:17:54;;;;;;;8.67;2.43;;;12.90;99.90;;;;;;5059718;28;20293;-67
2022/01/05 06:20:21;;;;;;;11.37;2.53;;;13.00;99.90;;;;;;5030877;28;20188;-69
2022/01/05 06:22:47;;;;;;;12.40;2.30;;;13.00;99.90;;;;;;5052806;28;20223;-69
2022/01/05 06:25:13;;;;;;;8.93;2.57;;;13.00;99.90;;;;;;5029584;28;20203;-69
2022/01/05 06:27:40;;;;;;;8.03;2.20;;;13.00;99.90;;;;;;5037243;28;20233;-69
2022/01/05 06:30:09;;;;;;;11.40;2.50;;;13.00;99.90;;;;;;5047277;28;20219;-69
2022/01/05 06:32:45;;;;;;;7.87;2.50;;;13.00;99.90;;;;;;5042560;28;20378;-69
2022/01/05 06:35:14;;;;;;;13.40;2.90;;;13.00;99.90;;;;;;5024058;28;20244;-69
2022/01/05 06:37:41;;;;;;;6.70;2.07;;;13.00;99.90;;;;;;5033590;28;20187;-69
2022/01/05 06:40:08;;;;;;;12.43;2.20;;;13.00;99.90;;;;;;5024695;28;20198;-69
2022/01/05 06:42:34;;;;;;;5.93;1.83;;;13.10;99.90;;;;;;5054638;28;20584;-69
2022/01/05 06:45:01;;;;;;;8.03;1.90;;;13.10;99.90;;;;;;5037376;28;20194;-69
2022/01/05 06:47:27;;;;;;;7.90;1.93;;;13.10;99.90;;;;;;5032860;28;20198;-69
2022/01/05 06:49:53;;;;;;;9.90;1.90;;;13.20;99.90;;;;;;5033370;28;20688;-69
2022/01/05 06:52:20;;;;;;;8.57;2.00;;;13.20;99.90;;;;;;5038488;28;20187;-69
2022/01/05 06:54:46;;;;;;;13.27;2.00;;;13.20;99.90;;;;;;5035633;28;20191;-69
2022/01/05 06:57:12;;;;;;;8.60;2.10;;;13.30;99.90;;;;;;5032013;28;20190;-69
2022/01/05 06:59:39;;;;;;;9.53;2.10;;;13.30;99.90;;;;;;5047655;28;20183;-69
2022/01/05 07:02:06;;;;;;;7.90;1.90;;;13.30;99.90;;;;;;5035845;28;20218;-67
2022/01/05 07:04:33;;;;;;;8.47;2.20;;;13.30;99.90;;;;;;5035783;28;20661;-67
2022/01/05 07:06:59;;;;;;;6.07;1.83;;;13.40;99.90;;;;;;5053590;28;20218;-70
2022/01/05 07:09:26;;;;;;;7.73;2.37;;;13.40;99.90;;;;;;5012252;28;20198;-69
2022/01/05 07:11:52;;;;;;;7.17;2.03;;;13.40;99.90;;;;;;5022693;28;20694;-69
2022/01/05 07:14:18;;;;;;;8.43;1.87;;;13.40;99.90;;;;;;5026570;28;20215;-69
2022/01/05 07:16:44;;;;;;;8.90;2.10;;;13.50;99.90;;;;;;5022558;28;20191;-69
2022/01/05 07:19:11;;;;;;;7.77;1.80;;;13.50;99.90;;;;;;5039933;28;20183;-69
2022/01/05 07:21:38;;;;;;;7.47;2.47;;;13.50;99.90;;;;;;5020123;28;20902;-69
2022/01/05 07:24:05;;;;;;;10.00;2.60;;;13.60;99.90;;;;;;5036438;28;20651;-69
2022/01/05 07:26:32;;;;;;;5.37;2.23;;;13.60;99.90;;;;;;5040092;28;20197;-69
2022/01/05 07:28:58;;;;;;;8.70;2.13;;;13.60;99.90;;;;;;5039954;28;20198;-69
2022/01/05 07:31:24;;;;;;;10.33;2.20;;;13.60;99.90;;;;;;5056397;28;20210;-69
2022/01/05 07:33:50;;;;;;;8.70;2.00;;;13.60;99.90;;;;;;5044676;28;20252;-69
2022/01/05 07:36:17;;;;;;;9.30;2.83;;;13.60;99.90;;;;;;5016449;28;20200;-69
2022/01/05 07:38:43;;;;;;;6.63;1.90;;;13.60;99.90;;;;;;5048171;28;20288;-69
2022/01/05 07:41:10;;;;;;;11.20;2.00;;;13.70;99.90;;;;;;5022051;28;20305;-69
2022/01/05 07:43:36;;;;;;;13.27;1.90;;;13.70;99.90;;;;;;5036529;28;20245;-69
2022/01/05 07:46:02;;;;;;;6.07;1.57;;;13.70;99.90;;;;;;5048755;28;20197;-67
2022/01/05 07:48:29;;;;;;;2.80;1.20;;;13.70;99.90;;;;;;5035383;28;20186;-67
2022/01/05 07:50:55;;;;;;;6.67;1.43;;;13.70;99.90;;;;;;5053975;28;20691;-67
2022/01/05 07:53:22;;;;;;;5.90;1.67;;;13.70;99.90;;;;;;5048915;28;20255;-67
2022/01/05 07:55:48;;;;;;;12.13;1.80;;;13.70;99.90;;;;;;5028069;28;20196;-70
2022/01/05 07:58:15;;;;;;;3.73;1.40;;;13.70;99.90;;;;;;5009031;28;20187;-70
2022/01/05 08:00:41;;;;;;;5.40;1.60;;;13.70;99.90;;;;;;5021150;28;20192;-71
2022/01/05 08:03:08;;;;;;;12.90;1.97;;;13.70;99.90;;;;;;5046119;28;20207;-69
2022/01/05 08:05:34;;;;;;;11.83;1.90;;;13.70;99.90;;;;;;5043551;28;20656;-68
2022/01/05 08:08:00;;;;;;;9.63;1.67;;;13.70;99.90;;;;;;5031439;28;20640;-68
2022/01/05 08:10:27;;;;;;;8.13;1.53;;;13.70;99.90;;;;;;5030126;28;20219;-68
2022/01/05 08:12:53;;;;;;;5.63;1.63;;;13.70;99.90;;;;;;5028910;28;20614;-68
2022/01/05 08:15:20;;;;;;;9.07;2.10;;;13.70;99.90;;;;;;5033338;28;20640;-68
2022/01/05 08:17:46;;;;;;;10.30;1.73;;;13.70;99.90;;;;;;5020235;28;20183;-68
2022/01/05 08:20:14;;;;;;;12.80;2.83;;;13.70;99.90;;;;;;5042363;28;20671;-68
2022/01/05 08:22:43;;;;;;;12.50;2.90;;;13.70;99.90;;;;;;5030155;28;20183;-68
2022/01/05 08:25:17;;;;;;;16.60;2.50;;;13.70;99.90;;;;;;5026551;28;20192;-68
2022/01/05 08:27:47;;;;;;;10.33;2.10;;;13.60;99.90;;;;;;5025387;28;20215;-68
2022/01/05 08:30:23;;;;;;;11.10;2.07;;;13.70;99.90;;;;;;5020662;28;20204;-68
2022/01/05 08:32:52;;;;;;;10.70;2.73;;;13.60;99.90;;;;;;5042838;28;20187;-68
2022/01/05 08:35:22;;;;;;;9.53;2.70;;;13.60;99.90;;;;;;5010213;28;20873;-68
2022/01/05 08:37:49;;;;;;;7.53;2.90;;;13.60;99.90;;;;;;5026296;28;20195;-68
2022/01/05 08:40:20;;;;;;;10.90;2.57;;;13.50;99.90;;;;;;5024851;28;20226;-67
2022/01/05 08:42:47;;;;;;;11.23;3.10;;;13.60;99.90;;;;;;5030254;28;20201;-67
2022/01/05 08:45:15;;;;;;;7.17;2.57;;;13.50;99.90;;;;;;5006945;28;20226;-67
2022/01/05 08:47:47;;;;;;;7.97;2.17;;;13.60;99.90;;;;;;5024010;28;20187;-67
2022/01/05 08:50:20;;;;;;;4.77;1.80;;;13.60;99.90;;;;;;5041723;28;20982;-67
2022/01/05 08:52:47;;;;;;;6.57;1.83;;;13.60;99.90;;;;;;5025099;28;20187;-67
2022/01/05 08:55:16;;;;;;;11.77;2.10;;;13.60;99.90;;;;;;5044534;28;20195;-67
2022/01/05 08:57:43;;;;;;;8.87;2.03;;;13.70;99.90;;;;;;5046587;28;20193;-66
2022/01/05 09:00:12;;;;;;;8.93;1.90;;;13.70;99.90;;;;;;5009928;28;20321;-67
2022/01/05 09:02:40;;;;;;;5.57;1.70;;;13.80;99.90;;;;;;5029256;28;20212;-66
2022/01/05 09:05:08;;;;;;;6.87;1.87;;;13.80;99.90;;;;;;5046120;28;20191;-65
2022/01/05 09:07:35;;;;;;;8.17;1.70;;;13.90;99.90;;;;;;5027852;28;20222;-68
2022/01/05 09:10:04;;;;;;;8.33;1.90;;;14.00;99.90;;;;;;5028421;28;20327;-70
2022/01/05 09:12:34;;;;;;;7.10;1.70;;;14.00;99.90;;;;;;5038323;28;20675;-70
2022/01/05 09:15:01;;;;;;;6.37;1.73;;;14.00;99.90;;;;;;5026872;28;20222;-70
2022/01/05 09:17:28;;;;;;;2.83;1.30;;;14.10;99.90;;;;;;5033252;28;20225;-70
2022/01/05 09:19:54;;;;;;;7.37;1.40;;;14.10;99.90;;;;;;5043711;28;20544;-70
2022/01/05 09:22:22;;;;;;;6.37;2.00;;;14.20;99.90;;;;;;5045119;28;20270;-70
2022/01/05 09:24:49;;;;;;;2.70;1.20;;;14.20;99.90;;;;;;5038903;28;20577;-70
2022/01/05 09:27:17;;;;;;;3.50;1.23;;;14.20;99.90;;;;;;5024502;28;20198;-71
2022/01/05 09:29:43;;;;;;;3.03;1.07;;;14.20;99.90;;;;;;5041241;28;20234;-70
2022/01/05 09:32:10;;;;;;;4.13;1.10;;;14.20;99.90;;;;;;5026162;28;20680;-70
2022/01/05 09:34:42;;;;;;;2.93;1.10;;;14.20;99.90;;;;;;5026385;28;20183;-71
2022/01/05 09:37:33;;;;;;;3.53;1.20;;;14.30;99.90;;;;;;5031559;28;20728;-71
2022/01/05 09:42:45;;;;;;;3.23;1.30;;;14.40;99.90;;;;;;5030725;28;20223;-70
2022/01/05 09:45:22;;;;;;;4.53;1.17;;;14.40;99.90;;;;;;5030301;28;20180;-70
2022/01/05 09:48:16;;;;;;;5.30;1.50;;;14.40;99.90;;;;;;5026051;28;20650;-70
2022/01/05 09:51:01;;;;;;;5.33;1.30;;;14.50;99.90;;;;;;5027210;28;20215;-71
2022/01/05 09:53:31;;;;;;;3.77;1.03;;;14.50;99.90;;;;;;5043661;28;20176;-71
2022/01/05 09:55:58;;;;;;;5.27;1.40;;;14.50;99.90;;;;;;5011403;28;20195;-71
2022/01/05 09:58:28;;;;;;;4.80;1.27;;;14.50;99.90;;;;;;5041391;28;20274;-71
2022/01/05 10:00:55;;;;;;;2.33;1.20;;;14.50;99.90;;;;;;5014321;28;20236;-70
2022/01/05 10:03:22;;;;;;;3.27;1.00;;;14.50;99.90;;;;;;5025036;28;20204;-71
2022/01/05 10:05:49;;;;;;;4.00;1.17;;;14.50;99.90;;;;;;5044899;28;20684;-70
2022/01/05 10:08:16;;;;;;;3.37;1.40;;;14.50;99.90;;;;;;5028736;28;20184;-70
2022/01/05 10:10:42;;;;;;;2.73;1.30;;;14.60;99.90;;;;;;5012463;28;20676;-70
2022/01/05 10:13:09;;;;;;;4.73;1.20;;;14.60;99.90;;;;;;5029376;28;20210;-70
2022/01/05 10:15:36;;;;;;;3.23;1.20;;;14.60;99.90;;;;;;5015774;28;20314;-70
2022/01/05 10:18:40;;;;;;;5.00;1.40;;;14.60;99.90;;;;;;5024691;28;20275;-70
2022/01/05 10:21:07;;;;;;;3.50;1.50;;;14.70;99.90;;;;;;5043285;28;20191;-70
2022/01/05 10:23:44;;;;;;;3.17;1.40;;;14.70;99.90;;;;;;5030689;28;20202;-70
2022/01/05 10:26:36;;;;;;;2.80;1.20;;;14.70;99.90;;;;;;5043034;28;20215;-70
2022/01/05 10:29:20;;;;;;;6.47;2.03;;;14.70;99.90;;;;;;5011206;28;20237;-70
2022/01/05 10:31:56;;;;;;;3.60;0.90;;;14.70;99.90;;;;;;5011205;28;20642;-71
2022/01/05 10:34:28;;;;;;;3.00;1.07;;;14.70;99.90;;;;;;5029887;28;20295;-69
2022/01/05 10:37:00;;;;;;;5.13;1.30;;;14.70;99.90;;;;;;5029061;28;20210;-71
2022/01/05 10:39:39;;;;;;;6.20;1.63;;;14.70;99.90;;;;;;5027987;28;20195;-70
2022/01/05 10:42:12;;;;;;;1.27;0.70;;;14.70;99.90;;;;;;5025775;28;20196;-70
2022/01/05 10:44:46;;;;;;;3.20;1.10;;;14.70;99.90;;;;;;5004421;28;20179;-70
2022/01/05 10:47:16;;;;;;;8.17;1.33;;;14.60;99.90;;;;;;5028950;28;20199;-70
2022/01/05 10:49:44;;;;;;;4.17;0.97;;;14.60;99.90;;;;;;5021983;28;20192;-70
2022/01/05 10:52:32;;;;;;;3.13;0.80;;;14.60;99.90;;;;;;5009753;28;20215;-70
2022/01/05 10:55:13;;;;;;;4.50;0.97;;;14.60;99.90;;;;;;5023664;28;20199;-70
2022/01/05 10:58:06;;;;;;;3.03;1.03;;;14.60;99.90;;;;;;5045153;28;20187;-70
2022/01/05 11:00:39;;;;;;;3.23;1.30;;;14.50;99.90;;;;;;5026876;28;20199;-70
2022/01/05 11:03:30;;;;;;;2.40;0.87;;;14.40;99.90;;;;;;5030095;28;20297;-70
2022/01/05 11:06:08;;;;;;;3.23;0.80;;;14.30;99.90;;;;;;5027521;28;20218;-69
2022/01/05 11:08:59;;;;;;;3.17;1.07;;;14.10;99.90;;;;;;5029616;28;20735;-69
2022/01/05 11:11:44;;;;;;;2.23;1.03;;;14.00;99.90;;;;;;5042340;28;20216;-70
2022/01/05 11:14:17;;;;;;;4.07;1.37;;;13.90;99.90;;;;;;5026269;28;20187;-70
2022/01/05 11:16:53;;;;;;;2.27;1.00;;;13.90;99.90;;;;;;5020618;28;20192;-70
2022/01/05 11:19:24;;;;;;;1.20;0.77;;;13.90;99.90;;;;;;5026864;28;20260;-70
2022/01/05 11:22:04;;;;;;;5.17;1.10;;;13.90;99.90;;;;;;5028141;28;20194;-70
2022/01/05 11:24:47;;;;;;;2.30;1.00;;;13.80;99.90;;;;;;5043899;28;20786;-71
2022/01/05 11:27:25;;;;;;;2.60;0.70;;;13.80;99.90;;;;;;5027880;28;20217;-70
2022/01/05 11:29:53;;;;;;;2.27;0.80;;;13.70;99.90;;;;;;5041901;28;20198;-71
2022/01/05 11:32:30;;;;;;;1.70;0.60;;;13.70;99.90;;;;;;5028862;28;20233;-70
2022/01/05 11:34:57;;;;;;;0.87;0.53;;;13.70;99.90;;;;;;5038273;28;20641;-71
2022/01/05 11:37:23;;;;;;;2.77;0.63;;;13.80;99.90;;;;;;5010180;28;20183;-70
2022/01/05 11:39:53;;;;;;;3.30;0.77;;;13.80;99.90;;;;;;5013254;28;20288;-69
2022/01/05 11:42:34;;;;;;;1.80;0.90;;;13.90;99.90;;;;;;5040636;28;20291;-70
2022/01/05 11:45:03;;;;;;;1.67;0.60;;;13.90;99.90;;;;;;5029037;28;20249;-70
2022/01/05 11:47:39;;;;;;;1.23;0.53;;;13.90;99.90;;;;;;5038485;28;20647;-70
2022/01/05 11:50:14;;;;;;;1.20;0.60;;;13.90;99.90;;;;;;5022547;28;20274;-70
2022/01/05 11:53:05;;;;;;;1.67;0.77;;;14.00;99.90;;;;;;5022824;28;20651;-69
2022/01/05 11:55:52;;;;;;;1.23;0.70;;;14.10;99.90;;;;;;5024113;28;20302;-70
2022/01/05 11:58:25;;;;;;;1.43;0.50;;;14.10;99.90;;;;;;5040359;28;20204;-69
2022/01/05 12:01:13;;;;;;;2.60;0.90;;;14.10;99.90;;;;;;5020514;28;20184;-70
2022/01/05 12:03:52;;;;;;;1.67;0.73;;;14.20;99.90;;;;;;5008161;28;20255;-70
2022/01/05 12:06:23;;;;;;;3.60;0.90;;;14.30;99.90;;;;;;5016054;28;20187;-70
2022/01/05 12:08:56;;;;;;;1.43;0.73;;;14.30;99.90;;;;;;5041121;28;20191;-70
2022/01/05 12:11:39;;;;;;;1.20;0.50;;;14.30;99.90;;;;;;5004128;28;20241;-70
2022/01/05 12:14:22;;;;;;;2.50;0.80;;;14.30;99.90;;;;;;5024175;28;20195;-70
2022/01/05 12:17:06;;;;;;;2.37;0.70;;;14.30;99.90;;;;;;5043846;28;20184;-70
2022/01/05 12:19:55;;;;;;;2.93;0.80;;;14.30;99.90;;;;;;5020680;28;20202;-70
2022/01/05 12:22:33;;;;;;;1.93;0.60;;;14.30;99.90;;;;;;5034033;28;20196;-70
2022/01/05 12:25:04;;;;;;;2.23;1.10;;;14.30;99.90;;;;;;5023553;28;20187;-70
2022/01/05 12:27:58;;;;;;;5.00;0.80;;;14.40;99.90;;;;;;5024815;28;20504;-70
2022/01/05 12:30:27;;;;;;;2.40;0.80;;;14.40;99.90;;;;;;5024348;28;20219;-70
2022/01/05 12:33:14;;;;;;;3.17;0.93;;;14.40;99.90;;;;;;5039703;28;20191;-70
2022/01/05 12:35:58;;;;;;;1.47;0.83;;;14.40;99.90;;;;;;5024545;28;20690;-69
2022/01/05 12:38:56;;;;;;;4.17;1.30;;;14.40;99.90;;;;;;5039977;28;20276;-70
2022/01/05 12:41:37;;;;;;;2.17;1.00;;;14.40;99.90;;;;;;4992770;28;20223;-70
2022/01/05 12:44:16;;;;;;;4.70;1.10;;;14.40;99.90;;;;;;5030916;28;20699;-70
2022/01/05 12:46:44;;;;;;;1.63;1.00;;;14.40;99.90;;;;;;5023735;28;20191;-70
2022/01/05 12:49:22;;;;;;;2.23;0.80;;;14.50;99.90;;;;;;5007271;28;20184;-70
2022/01/05 12:52:01;;;;;;;2.03;0.80;;;14.50;99.90;;;;;;5023156;28;20216;-70
2022/01/05 12:54:52;;;;;;;5.23;0.80;;;14.50;99.90;;;;;;5042363;28;20695;-70
2022/01/05 12:57:25;;;;;;;2.30;1.00;;;14.60;99.90;;;;;;5031239;28;20190;-70